Details for Ryanair at LIBD




Go Back


Latest METAR
Local Time

LIBD 240720Z 32005KT 290V350 9999 FEW015 SCT040 20/18 Q1016

24/05/2018, 09:54:08

Description
Results
Ryanair Logo
Number of Pilots based at LIBD
0 Pilots Based here
Number of Ryanair Flights Departed from LIBD
0 Flights Departed
Number of Ryanair Flights Arrived at LIBD
0 Flights Arrived
Number of Ryanair Schedules Departing from LIBD
50 Schedules
Number of Ryanair Schedules Arriving at LIBD
50 Schedules
Number of Ryanair Schedules Departing from LIBD availible today
18 Schedules Today
Number of Ryanair Schedules Arriving at LIBD availible today
18 Schedules Today
Average Landing Rate at LIBD
-195 fpm
Ryanair Average Landing Rate at LIBD
0 fpm
Total Fuel Purchased at LIBD by Ryanair
0.00 kgs / 0.00 lbs

Pilots Based at LIBD


Pilot ID
Pilot Name
Pilot Rank
No. of Flights
No. of Flying Hours
There are no pilots assigned to this hub!   Will you be the first?
Content